sensor_id;sensor_type;location;lat;lon;timestamp;P1;durP1;ratioP1;P2;durP2;ratioP2
76656;SDS011;65576;47.714;9.414;2023-02-15T00:01:29;3.03;;;2.72;;
76656;SDS011;65576;47.714;9.414;2023-02-15T00:03:55;2.67;;;2.47;;
76656;SDS011;65576;47.714;9.414;2023-02-15T00:06:20;3.40;;;2.20;;
76656;SDS011;65576;47.714;9.414;2023-02-15T00:08:46;2.58;;;2.38;;
76656;SDS011;65576;47.714;9.414;2023-02-15T00:11:12;3.22;;;2.10;;
76656;SDS011;65576;47.714;9.414;2023-02-15T00:13:38;2.85;;;2.65;;
76656;SDS011;65576;47.714;9.414;2023-02-15T00:16:08;4.43;;;2.42;;
76656;SDS011;65576;47.714;9.414;2023-02-15T00:18:35;2.13;;;1.95;;
76656;SDS011;65576;47.714;9.414;2023-02-15T00:21:04;4.25;;;3.78;;
76656;SDS011;65576;47.714;9.414;2023-02-15T00:23:31;8.73;;;3.15;;
76656;SDS011;65576;47.714;9.414;2023-02-15T00:26:04;3.70;;;3.15;;
76656;SDS011;65576;47.714;9.414;2023-02-15T00:28:29;4.20;;;2.72;;
76656;SDS011;65576;47.714;9.414;2023-02-15T00:30:56;3.05;;;2.17;;
76656;SDS011;65576;47.714;9.414;2023-02-15T00:33:36;5.35;;;3.53;;
76656;SDS011;65576;47.714;9.414;2023-02-15T00:36:02;4.05;;;3.15;;
76656;SDS011;65576;47.714;9.414;2023-02-15T00:38:28;2.25;;;2.05;;
76656;SDS011;65576;47.714;9.414;2023-02-15T00:40:54;4.43;;;3.15;;
76656;SDS011;65576;47.714;9.414;2023-02-15T00:43:20;4.93;;;3.30;;
76656;SDS011;65576;47.714;9.414;2023-02-15T00:45:46;2.65;;;2.45;;
76656;SDS011;65576;47.714;9.414;2023-02-15T00:48:11;4.35;;;2.85;;
76656;SDS011;65576;47.714;9.414;2023-02-15T00:50:36;2.40;;;1.83;;
76656;SDS011;65576;47.714;9.414;2023-02-15T00:53:02;2.60;;;1.90;;
76656;SDS011;65576;47.714;9.414;2023-02-15T00:55:27;4.15;;;2.95;;
76656;SDS011;65576;47.714;9.414;2023-02-15T00:57:52;4.93;;;3.40;;
76656;SDS011;65576;47.714;9.414;2023-02-15T01:00:17;3.50;;;3.20;;
76656;SDS011;65576;47.714;9.414;2023-02-15T01:02:43;3.55;;;2.92;;
76656;SDS011;65576;47.714;9.414;2023-02-15T01:05:08;3.58;;;2.45;;
76656;SDS011;65576;47.714;9.414;2023-02-15T01:07:33;2.88;;;2.53;;
76656;SDS011;65576;47.714;9.414;2023-02-15T01:09:59;8.52;;;3.35;;
76656;SDS011;65576;47.714;9.414;2023-02-15T01:12:24;6.53;;;3.05;;
76656;SDS011;65576;47.714;9.414;2023-02-15T01:14:49;3.78;;;2.55;;
76656;SDS011;65576;47.714;9.414;2023-02-15T01:17:15;5.43;;;2.42;;
76656;SDS011;65576;47.714;9.414;2023-02-15T01:19:40;2.30;;;1.98;;
76656;SDS011;65576;47.714;9.414;2023-02-15T01:22:05;3.35;;;2.90;;
76656;SDS011;65576;47.714;9.414;2023-02-15T01:24:31;2.75;;;1.95;;
76656;SDS011;65576;47.714;9.414;2023-02-15T01:26:56;5.45;;;3.42;;
76656;SDS011;65576;47.714;9.414;2023-02-15T01:29:21;4.38;;;3.00;;
76656;SDS011;65576;47.714;9.414;2023-02-15T01:31:47;4.93;;;3.30;;
76656;SDS011;65576;47.714;9.414;2023-02-15T01:34:12;3.92;;;3.45;;
76656;SDS011;65576;47.714;9.414;2023-02-15T01:36:37;3.15;;;2.72;;
76656;SDS011;65576;47.714;9.414;2023-02-15T01:39:02;14.82;;;3.72;;
76656;SDS011;65576;47.714;9.414;2023-02-15T01:41:28;2.13;;;1.88;;
76656;SDS011;65576;47.714;9.414;2023-02-15T01:43:54;3.30;;;2.65;;
76656;SDS011;65576;47.714;9.414;2023-02-15T01:46:23;6.22;;;3.05;;
76656;SDS011;65576;47.714;9.414;2023-02-15T01:48:53;3.72;;;2.95;;
76656;SDS011;65576;47.714;9.414;2023-02-15T01:51:23;4.97;;;3.42;;
76656;SDS011;65576;47.714;9.414;2023-02-15T01:56:27;2.50;;;1.98;;
76656;SDS011;65576;47.714;9.414;2023-02-15T01:58:55;2.83;;;1.42;;
76656;SDS011;65576;47.714;9.414;2023-02-15T02:01:23;7.50;;;3.72;;
76656;SDS011;65576;47.714;9.414;2023-02-15T02:04:00;8.55;;;3.50;;
76656;SDS011;65576;47.714;9.414;2023-02-15T02:06:30;5.40;;;2.78;;
76656;SDS011;65576;47.714;9.414;2023-02-15T02:08:56;5.07;;;2.58;;
76656;SDS011;65576;47.714;9.414;2023-02-15T02:11:22;3.85;;;3.53;;
76656;SDS011;65576;47.714;9.414;2023-02-15T02:13:48;2.60;;;2.13;;
76656;SDS011;65576;47.714;9.414;2023-02-15T02:18:47;4.40;;;3.15;;
76656;SDS011;65576;47.714;9.414;2023-02-15T02:24:10;3.78;;;2.25;;
76656;SDS011;65576;47.714;9.414;2023-02-15T02:26:53;4.18;;;2.38;;
76656;SDS011;65576;47.714;9.414;2023-02-15T02:32:42;7.93;;;2.92;;
76656;SDS011;65576;47.714;9.414;2023-02-15T02:35:53;3.45;;;3.15;;
76656;SDS011;65576;47.714;9.414;2023-02-15T02:38:15;2.20;;;2.00;;
76656;SDS011;65576;47.714;9.414;2023-02-15T02:45:53;3.30;;;3.00;;
76656;SDS011;65576;47.714;9.414;2023-02-15T02:48:23;3.88;;;2.03;;
76656;SDS011;65576;47.714;9.414;2023-02-15T02:50:50;3.38;;;2.38;;
76656;SDS011;65576;47.714;9.414;2023-02-15T02:53:15;4.03;;;1.98;;
76656;SDS011;65576;47.714;9.414;2023-02-15T02:55:42;3.90;;;2.97;;
76656;SDS011;65576;47.714;9.414;2023-02-15T02:58:21;6.07;;;3.30;;
76656;SDS011;65576;47.714;9.414;2023-02-15T03:00:57;5.03;;;2.80;;
76656;SDS011;65576;47.714;9.414;2023-02-15T03:06:24;2.53;;;2.33;;
76656;SDS011;65576;47.714;9.414;2023-02-15T03:08:54;1.80;;;1.60;;
76656;SDS011;65576;47.714;9.414;2023-02-15T03:11:23;3.47;;;2.30;;
76656;SDS011;65576;47.714;9.414;2023-02-15T03:13:48;2.88;;;1.98;;
76656;SDS011;65576;47.714;9.414;2023-02-15T03:16:14;5.47;;;3.47;;
76656;SDS011;65576;47.714;9.414;2023-02-15T03:18:54;4.38;;;2.92;;
76656;SDS011;65576;47.714;9.414;2023-02-15T03:21:29;3.60;;;2.25;;
76656;SDS011;65576;47.714;9.414;2023-02-15T03:23:59;2.25;;;2.10;;
76656;SDS011;65576;47.714;9.414;2023-02-15T03:26:32;4.00;;;2.88;;
76656;SDS011;65576;47.714;9.414;2023-02-15T03:28:59;3.05;;;1.95;;
76656;SDS011;65576;47.714;9.414;2023-02-15T03:31:26;3.88;;;1.77;;
76656;SDS011;65576;47.714;9.414;2023-02-15T03:33:56;4.82;;;2.90;;
76656;SDS011;65576;47.714;9.414;2023-02-15T03:39:03;3.63;;;2.20;;
76656;SDS011;65576;47.714;9.414;2023-02-15T03:41:33;4.05;;;3.53;;
76656;SDS011;65576;47.714;9.414;2023-02-15T03:44:06;4.72;;;3.58;;
76656;SDS011;65576;47.714;9.414;2023-02-15T03:46:40;3.22;;;2.25;;
76656;SDS011;65576;47.714;9.414;2023-02-15T03:49:14;2.85;;;2.25;;
76656;SDS011;65576;47.714;9.414;2023-02-15T03:51:48;4.93;;;3.38;;
76656;SDS011;65576;47.714;9.414;2023-02-15T03:54:17;3.25;;;2.97;;
76656;SDS011;65576;47.714;9.414;2023-02-15T03:57:07;3.45;;;3.15;;
76656;SDS011;65576;47.714;9.414;2023-02-15T04:00:22;3.42;;;2.45;;
76656;SDS011;65576;47.714;9.414;2023-02-15T04:05:54;1.63;;;1.42;;
76656;SDS011;65576;47.714;9.414;2023-02-15T04:08:19;3.05;;;2.65;;
76656;SDS011;65576;47.714;9.414;2023-02-15T04:10:44;2.88;;;1.90;;
76656;SDS011;65576;47.714;9.414;2023-02-15T04:13:24;4.45;;;3.03;;
76656;SDS011;65576;47.714;9.414;2023-02-15T04:15:54;2.65;;;2.45;;
76656;SDS011;65576;47.714;9.414;2023-02-15T04:18:32;3.05;;;1.92;;
76656;SDS011;65576;47.714;9.414;2023-02-15T04:21:18;2.85;;;2.28;;
76656;SDS011;65576;47.714;9.414;2023-02-15T04:24:02;4.50;;;3.05;;
76656;SDS011;65576;47.714;9.414;2023-02-15T04:26:46;3.25;;;1.95;;
76656;SDS011;65576;47.714;9.414;2023-02-15T04:29:13;5.03;;;2.60;;
76656;SDS011;65576;47.714;9.414;2023-02-15T04:31:39;5.05;;;2.70;;
76656;SDS011;65576;47.714;9.414;2023-02-15T04:34:05;4.75;;;2.45;;
76656;SDS011;65576;47.714;9.414;2023-02-15T04:36:30;5.45;;;2.20;;
76656;SDS011;65576;47.714;9.414;2023-02-15T04:38:55;2.42;;;2.22;;
76656;SDS011;65576;47.714;9.414;2023-02-15T04:41:21;6.18;;;3.47;;
76656;SDS011;65576;47.714;9.414;2023-02-15T04:43:46;9.55;;;3.55;;
76656;SDS011;65576;47.714;9.414;2023-02-15T04:46:11;3.13;;;2.58;;
76656;SDS011;65576;47.714;9.414;2023-02-15T04:48:37;6.15;;;3.10;;
76656;SDS011;65576;47.714;9.414;2023-02-15T04:51:05;10.25;;;3.28;;
76656;SDS011;65576;47.714;9.414;2023-02-15T04:53:31;3.42;;;2.55;;
76656;SDS011;65576;47.714;9.414;2023-02-15T04:55:57;3.58;;;3.08;;
76656;SDS011;65576;47.714;9.414;2023-02-15T04:58:22;3.05;;;2.65;;
76656;SDS011;65576;47.714;9.414;2023-02-15T05:00:47;3.10;;;2.65;;
76656;SDS011;65576;47.714;9.414;2023-02-15T05:03:13;4.07;;;3.42;;
76656;SDS011;65576;47.714;9.414;2023-02-15T05:05:38;9.57;;;3.78;;
76656;SDS011;65576;47.714;9.414;2023-02-15T05:08:03;1.73;;;1.48;;
76656;SDS011;65576;47.714;9.414;2023-02-15T05:10:29;6.93;;;3.55;;
76656;SDS011;65576;47.714;9.414;2023-02-15T05:12:54;9.88;;;3.38;;
76656;SDS011;65576;47.714;9.414;2023-02-15T05:15:19;1.63;;;1.52;;
76656;SDS011;65576;47.714;9.414;2023-02-15T05:17:44;5.05;;;2.08;;
76656;SDS011;65576;47.714;9.414;2023-02-15T05:20:10;1.83;;;1.70;;
76656;SDS011;65576;47.714;9.414;2023-02-15T05:22:35;3.13;;;2.05;;
76656;SDS011;65576;47.714;9.414;2023-02-15T05:25:01;1.60;;;1.50;;
76656;SDS011;65576;47.714;9.414;2023-02-15T05:27:44;1.63;;;1.52;;
76656;SDS011;65576;47.714;9.414;2023-02-15T05:30:28;7.78;;;3.10;;
76656;SDS011;65576;47.714;9.414;2023-02-15T05:32:54;3.00;;;2.53;;
76656;SDS011;65576;47.714;9.414;2023-02-15T05:35:19;2.03;;;1.92;;
76656;SDS011;65576;47.714;9.414;2023-02-15T05:37:45;6.32;;;2.22;;
76656;SDS011;65576;47.714;9.414;2023-02-15T05:40:10;3.35;;;2.60;;
76656;SDS011;65576;47.714;9.414;2023-02-15T05:42:36;3.22;;;2.30;;
76656;SDS011;65576;47.714;9.414;2023-02-15T05:45:01;2.20;;;2.00;;
76656;SDS011;65576;47.714;9.414;2023-02-15T05:47:28;4.28;;;2.05;;
76656;SDS011;65576;47.714;9.414;2023-02-15T05:49:53;3.42;;;2.92;;
76656;SDS011;65576;47.714;9.414;2023-02-15T05:52:19;4.30;;;3.35;;
76656;SDS011;65576;47.714;9.414;2023-02-15T05:54:44;6.72;;;2.83;;
76656;SDS011;65576;47.714;9.414;2023-02-15T05:57:09;2.35;;;1.67;;
76656;SDS011;65576;47.714;9.414;2023-02-15T05:59:35;1.80;;;1.70;;
76656;SDS011;65576;47.714;9.414;2023-02-15T06:02:00;3.05;;;2.72;;
76656;SDS011;65576;47.714;9.414;2023-02-15T06:04:25;3.33;;;2.33;;
76656;SDS011;65576;47.714;9.414;2023-02-15T06:06:51;9.57;;;3.45;;
76656;SDS011;65576;47.714;9.414;2023-02-15T06:09:16;2.55;;;1.63;;
76656;SDS011;65576;47.714;9.414;2023-02-15T06:11:43;3.22;;;2.08;;
76656;SDS011;65576;47.714;9.414;2023-02-15T06:14:09;3.72;;;2.38;;
76656;SDS011;65576;47.714;9.414;2023-02-15T06:16:35;4.70;;;3.30;;
76656;SDS011;65576;47.714;9.414;2023-02-15T06:19:00;2.38;;;1.88;;
76656;SDS011;65576;47.714;9.414;2023-02-15T06:21:26;3.78;;;1.95;;
76656;SDS011;65576;47.714;9.414;2023-02-15T06:23:52;4.63;;;4.20;;
76656;SDS011;65576;47.714;9.414;2023-02-15T06:26:17;2.30;;;2.05;;
76656;SDS011;65576;47.714;9.414;2023-02-15T06:28:42;5.70;;;1.95;;
76656;SDS011;65576;47.714;9.414;2023-02-15T06:31:08;5.13;;;2.42;;
76656;SDS011;65576;47.714;9.414;2023-02-15T06:33:33;4.72;;;2.47;;
76656;SDS011;65576;47.714;9.414;2023-02-15T06:35:59;2.13;;;1.55;;
76656;SDS011;65576;47.714;9.414;2023-02-15T06:38:24;7.95;;;3.10;;
76656;SDS011;65576;47.714;9.414;2023-02-15T06:40:50;4.25;;;2.30;;
76656;SDS011;65576;47.714;9.414;2023-02-15T06:43:15;9.30;;;3.22;;
76656;SDS011;65576;47.714;9.414;2023-02-15T06:45:41;2.50;;;2.17;;
76656;SDS011;65576;47.714;9.414;2023-02-15T06:48:06;6.32;;;2.53;;
76656;SDS011;65576;47.714;9.414;2023-02-15T06:50:33;5.20;;;2.42;;
76656;SDS011;65576;47.714;9.414;2023-02-15T06:52:58;2.22;;;2.00;;
76656;SDS011;65576;47.714;9.414;2023-02-15T06:55:24;5.75;;;3.15;;
76656;SDS011;65576;47.714;9.414;2023-02-15T06:57:50;5.78;;;2.72;;
76656;SDS011;65576;47.714;9.414;2023-02-15T07:00:15;2.70;;;2.47;;
76656;SDS011;65576;47.714;9.414;2023-02-15T07:02:40;1.92;;;1.83;;
76656;SDS011;65576;47.714;9.414;2023-02-15T07:05:06;2.65;;;1.98;;
76656;SDS011;65576;47.714;9.414;2023-02-15T07:07:31;4.13;;;3.05;;
76656;SDS011;65576;47.714;9.414;2023-02-15T07:09:56;2.95;;;2.55;;
76656;SDS011;65576;47.714;9.414;2023-02-15T07:12:22;5.35;;;2.95;;
76656;SDS011;65576;47.714;9.414;2023-02-15T07:15:05;2.50;;;2.00;;
76656;SDS011;65576;47.714;9.414;2023-02-15T07:17:32;5.78;;;2.42;;
76656;SDS011;65576;47.714;9.414;2023-02-15T07:19:58;3.33;;;3.00;;
76656;SDS011;65576;47.714;9.414;2023-02-15T07:22:23;3.10;;;2.70;;
76656;SDS011;65576;47.714;9.414;2023-02-15T07:24:49;3.60;;;2.78;;
76656;SDS011;65576;47.714;9.414;2023-02-15T07:27:14;5.28;;;3.20;;
76656;SDS011;65576;47.714;9.414;2023-02-15T07:29:40;2.33;;;1.95;;
76656;SDS011;65576;47.714;9.414;2023-02-15T07:32:05;4.00;;;3.38;;
76656;SDS011;65576;47.714;9.414;2023-02-15T07:34:30;5.10;;;3.45;;
76656;SDS011;65576;47.714;9.414;2023-02-15T07:36:56;4.70;;;2.90;;
76656;SDS011;65576;47.714;9.414;2023-02-15T07:39:21;2.40;;;2.20;;
76656;SDS011;65576;47.714;9.414;2023-02-15T07:41:47;5.18;;;3.40;;
76656;SDS011;65576;47.714;9.414;2023-02-15T07:44:13;5.38;;;3.70;;
76656;SDS011;65576;47.714;9.414;2023-02-15T07:46:39;3.97;;;2.90;;
76656;SDS011;65576;47.714;9.414;2023-02-15T07:49:04;5.75;;;3.05;;
76656;SDS011;65576;47.714;9.414;2023-02-15T07:51:29;2.40;;;2.20;;
76656;SDS011;65576;47.714;9.414;2023-02-15T07:53:55;5.88;;;3.28;;
76656;SDS011;65576;47.714;9.414;2023-02-15T07:56:20;3.67;;;2.90;;
76656;SDS011;65576;47.714;9.414;2023-02-15T07:58:45;2.55;;;2.35;;
76656;SDS011;65576;47.714;9.414;2023-02-15T08:03:48;2.20;;;2.08;;
76656;SDS011;65576;47.714;9.414;2023-02-15T08:06:13;3.85;;;2.50;;
76656;SDS011;65576;47.714;9.414;2023-02-15T08:08:40;4.70;;;2.90;;
76656;SDS011;65576;47.714;9.414;2023-02-15T08:21:39;14.55;;;2.15;;
76656;SDS011;65576;47.714;9.414;2023-02-15T08:24:06;5.78;;;3.92;;
76656;SDS011;65576;47.714;9.414;2023-02-15T08:26:32;2.85;;;2.42;;
76656;SDS011;65576;47.714;9.414;2023-02-15T08:28:58;4.10;;;2.80;;
76656;SDS011;65576;47.714;9.414;2023-02-15T08:31:24;3.05;;;2.75;;
76656;SDS011;65576;47.714;9.414;2023-02-15T08:33:50;3.22;;;2.28;;
76656;SDS011;65576;47.714;9.414;2023-02-15T08:36:18;5.65;;;3.80;;
76656;SDS011;65576;47.714;9.414;2023-02-15T08:38:44;3.17;;;2.88;;
76656;SDS011;65576;47.714;9.414;2023-02-15T08:41:14;4.55;;;2.42;;
76656;SDS011;65576;47.714;9.414;2023-02-15T08:43:42;8.77;;;3.03;;
76656;SDS011;65576;47.714;9.414;2023-02-15T08:46:08;2.30;;;2.10;;
76656;SDS011;65576;47.714;9.414;2023-02-15T08:48:34;3.83;;;2.40;;
76656;SDS011;65576;47.714;9.414;2023-02-15T08:51:03;5.95;;;3.08;;
76656;SDS011;65576;47.714;9.414;2023-02-15T08:53:30;4.70;;;2.25;;
76656;SDS011;65576;47.714;9.414;2023-02-15T08:55:59;8.90;;;3.92;;
76656;SDS011;65576;47.714;9.414;2023-02-15T08:58:24;4.35;;;2.28;;
76656;SDS011;65576;47.714;9.414;2023-02-15T09:00:50;3.72;;;2.33;;
76656;SDS011;65576;47.714;9.414;2023-02-15T09:03:16;4.55;;;3.25;;
76656;SDS011;65576;47.714;9.414;2023-02-15T09:05:41;3.25;;;2.95;;
76656;SDS011;65576;47.714;9.414;2023-02-15T09:08:07;4.07;;;3.75;;
76656;SDS011;65576;47.714;9.414;2023-02-15T09:10:32;2.90;;;1.73;;
76656;SDS011;65576;47.714;9.414;2023-02-15T09:12:57;5.60;;;3.75;;
76656;SDS011;65576;47.714;9.414;2023-02-15T09:15:23;3.97;;;2.58;;
76656;SDS011;65576;47.714;9.414;2023-02-15T09:17:48;3.67;;;2.20;;
76656;SDS011;65576;47.714;9.414;2023-02-15T09:20:13;3.47;;;2.08;;
76656;SDS011;65576;47.714;9.414;2023-02-15T09:22:39;6.22;;;3.72;;
76656;SDS011;65576;47.714;9.414;2023-02-15T09:25:04;3.20;;;2.13;;
76656;SDS011;65576;47.714;9.414;2023-02-15T09:27:29;2.53;;;2.33;;
76656;SDS011;65576;47.714;9.414;2023-02-15T09:29:55;5.18;;;3.45;;
76656;SDS011;65576;47.714;9.414;2023-02-15T09:32:20;4.75;;;3.38;;
76656;SDS011;65576;47.714;9.414;2023-02-15T09:34:46;2.55;;;2.22;;
76656;SDS011;65576;47.714;9.414;2023-02-15T09:37:12;3.65;;;3.35;;
76656;SDS011;65576;47.714;9.414;2023-02-15T09:39:37;3.25;;;2.28;;
76656;SDS011;65576;47.714;9.414;2023-02-15T09:53:39;3.25;;;2.58;;
76656;SDS011;65576;47.714;9.414;2023-02-15T09:56:14;3.65;;;2.83;;
76656;SDS011;65576;47.714;9.414;2023-02-15T09:58:46;5.85;;;3.30;;
76656;SDS011;65576;47.714;9.414;2023-02-15T10:01:29;4.45;;;3.38;;
76656;SDS011;65576;47.714;9.414;2023-02-15T10:15:23;4.45;;;2.63;;
76656;SDS011;65576;47.714;9.414;2023-02-15T10:20:40;3.72;;;3.20;;
76656;SDS011;65576;47.714;9.414;2023-02-15T10:23:25;3.53;;;3.22;;
76656;SDS011;65576;47.714;9.414;2023-02-15T10:28:33;4.00;;;2.03;;
76656;SDS011;65576;47.714;9.414;2023-02-15T10:34:19;8.95;;;4.55;;
76656;SDS011;65576;47.714;9.414;2023-02-15T10:37:03;5.05;;;3.38;;
76656;SDS011;65576;47.714;9.414;2023-02-15T10:48:11;4.03;;;2.90;;
76656;SDS011;65576;47.714;9.414;2023-02-15T10:50:50;4.60;;;2.95;;
76656;SDS011;65576;47.714;9.414;2023-02-15T10:56:12;3.10;;;2.83;;
76656;SDS011;65576;47.714;9.414;2023-02-15T11:04:13;6.28;;;2.92;;
76656;SDS011;65576;47.714;9.414;2023-02-15T11:06:57;3.65;;;3.17;;
76656;SDS011;65576;47.714;9.414;2023-02-15T11:09:24;4.18;;;2.85;;
76656;SDS011;65576;47.714;9.414;2023-02-15T11:12:01;8.85;;;4.80;;
76656;SDS011;65576;47.714;9.414;2023-02-15T11:14:43;4.38;;;3.65;;
76656;SDS011;65576;47.714;9.414;2023-02-15T11:17:14;4.18;;;3.78;;
76656;SDS011;65576;47.714;9.414;2023-02-15T11:22:40;3.58;;;3.10;;
76656;SDS011;65576;47.714;9.414;2023-02-15T11:25:14;5.95;;;3.72;;
76656;SDS011;65576;47.714;9.414;2023-02-15T11:27:42;6.38;;;3.30;;
76656;SDS011;65576;47.714;9.414;2023-02-15T11:30:19;3.75;;;2.88;;
76656;SDS011;65576;47.714;9.414;2023-02-15T11:32:46;6.18;;;3.25;;
76656;SDS011;65576;47.714;9.414;2023-02-15T11:35:26;3.53;;;3.20;;
76656;SDS011;65576;47.714;9.414;2023-02-15T11:38:06;8.20;;;3.92;;
76656;SDS011;65576;47.714;9.414;2023-02-15T11:40:34;10.73;;;3.70;;
76656;SDS011;65576;47.714;9.414;2023-02-15T11:43:12;4.78;;;3.80;;
76656;SDS011;65576;47.714;9.414;2023-02-15T11:45:41;6.90;;;3.67;;
76656;SDS011;65576;47.714;9.414;2023-02-15T11:48:08;8.10;;;2.80;;
76656;SDS011;65576;47.714;9.414;2023-02-15T11:50:35;6.82;;;4.80;;
76656;SDS011;65576;47.714;9.414;2023-02-15T11:53:01;5.03;;;3.50;;
76656;SDS011;65576;47.714;9.414;2023-02-15T11:55:29;6.68;;;2.78;;
76656;SDS011;65576;47.714;9.414;2023-02-15T11:57:58;3.90;;;3.50;;
76656;SDS011;65576;47.714;9.414;2023-02-15T12:03:08;6.13;;;3.55;;
76656;SDS011;65576;47.714;9.414;2023-02-15T12:05:37;3.88;;;3.17;;
76656;SDS011;65576;47.714;9.414;2023-02-15T12:08:10;7.63;;;4.28;;
76656;SDS011;65576;47.714;9.414;2023-02-15T12:13:25;8.43;;;3.78;;
76656;SDS011;65576;47.714;9.414;2023-02-15T12:15:52;4.60;;;3.83;;
76656;SDS011;65576;47.714;9.414;2023-02-15T12:18:19;4.53;;;4.10;;
76656;SDS011;65576;47.714;9.414;2023-02-15T12:20:46;6.78;;;3.55;;
76656;SDS011;65576;47.714;9.414;2023-02-15T12:23:14;5.35;;;3.28;;
76656;SDS011;65576;47.714;9.414;2023-02-15T12:25:51;13.38;;;7.10;;
76656;SDS011;65576;47.714;9.414;2023-02-15T12:28:40;7.25;;;5.32;;
76656;SDS011;65576;47.714;9.414;2023-02-15T12:31:49;3.15;;;2.85;;
76656;SDS011;65576;47.714;9.414;2023-02-15T12:33:59;10.98;;;6.95;;
76656;SDS011;65576;47.714;9.414;2023-02-15T12:36:29;8.68;;;5.30;;
76656;SDS011;65576;47.714;9.414;2023-02-15T12:41:37;8.63;;;4.45;;
76656;SDS011;65576;47.714;9.414;2023-02-15T12:44:06;7.95;;;4.32;;
76656;SDS011;65576;47.714;9.414;2023-02-15T12:46:31;6.72;;;4.72;;
76656;SDS011;65576;47.714;9.414;2023-02-15T12:49:39;6.40;;;3.70;;
76656;SDS011;65576;47.714;9.414;2023-02-15T12:51:47;8.68;;;4.50;;
76656;SDS011;65576;47.714;9.414;2023-02-15T12:54:22;7.72;;;5.78;;
76656;SDS011;65576;47.714;9.414;2023-02-15T12:56:59;7.68;;;4.07;;
76656;SDS011;65576;47.714;9.414;2023-02-15T12:59:42;7.47;;;3.83;;
76656;SDS011;65576;47.714;9.414;2023-02-15T13:04:52;10.15;;;5.75;;
76656;SDS011;65576;47.714;9.414;2023-02-15T13:07:18;8.65;;;4.65;;
76656;SDS011;65576;47.714;9.414;2023-02-15T13:09:43;6.72;;;4.22;;
76656;SDS011;65576;47.714;9.414;2023-02-15T13:14:49;4.78;;;4.15;;
76656;SDS011;65576;47.714;9.414;2023-02-15T13:17:16;12.23;;;5.38;;
76656;SDS011;65576;47.714;9.414;2023-02-15T13:19:44;6.72;;;4.10;;
76656;SDS011;65576;47.714;9.414;2023-02-15T13:22:16;9.70;;;5.38;;
76656;SDS011;65576;47.714;9.414;2023-02-15T13:24:47;4.03;;;3.42;;
76656;SDS011;65576;47.714;9.414;2023-02-15T13:27:22;3.80;;;3.40;;
76656;SDS011;65576;47.714;9.414;2023-02-15T13:29:51;5.85;;;4.30;;
76656;SDS011;65576;47.714;9.414;2023-02-15T13:32:24;5.88;;;3.40;;
76656;SDS011;65576;47.714;9.414;2023-02-15T13:34:50;6.70;;;4.28;;
76656;SDS011;65576;47.714;9.414;2023-02-15T13:37:20;8.00;;;4.60;;
76656;SDS011;65576;47.714;9.414;2023-02-15T13:42:20;8.45;;;3.70;;
76656;SDS011;65576;47.714;9.414;2023-02-15T13:44:57;8.73;;;5.28;;
76656;SDS011;65576;47.714;9.414;2023-02-15T13:47:52;3.20;;;2.88;;
76656;SDS011;65576;47.714;9.414;2023-02-15T13:53:07;4.88;;;4.32;;
76656;SDS011;65576;47.714;9.414;2023-02-15T13:58:14;7.93;;;4.78;;
76656;SDS011;65576;47.714;9.414;2023-02-15T14:06:58;6.22;;;4.75;;
76656;SDS011;65576;47.714;9.414;2023-02-15T14:09:54;8.75;;;4.78;;
76656;SDS011;65576;47.714;9.414;2023-02-15T14:15:08;9.00;;;6.13;;
76656;SDS011;65576;47.714;9.414;2023-02-15T14:26:08;10.07;;;5.45;;
76656;SDS011;65576;47.714;9.414;2023-02-15T14:28:43;8.23;;;4.65;;
76656;SDS011;65576;47.714;9.414;2023-02-15T14:31:16;7.35;;;5.53;;
76656;SDS011;65576;47.714;9.414;2023-02-15T14:33:57;7.07;;;5.00;;
76656;SDS011;65576;47.714;9.414;2023-02-15T14:36:23;8.05;;;5.25;;
76656;SDS011;65576;47.714;9.414;2023-02-15T14:44:08;8.98;;;5.53;;
76656;SDS011;65576;47.714;9.414;2023-02-15T14:46:55;17.33;;;7.32;;
76656;SDS011;65576;47.714;9.414;2023-02-15T14:49:27;9.32;;;6.07;;
76656;SDS011;65576;47.714;9.414;2023-02-15T14:51:56;11.98;;;7.30;;
76656;SDS011;65576;47.714;9.414;2023-02-15T15:04:25;10.13;;;6.43;;
76656;SDS011;65576;47.714;9.414;2023-02-15T15:07:00;10.38;;;7.03;;
76656;SDS011;65576;47.714;9.414;2023-02-15T15:09:29;13.43;;;6.80;;
76656;SDS011;65576;47.714;9.414;2023-02-15T15:12:15;13.10;;;7.78;;
76656;SDS011;65576;47.714;9.414;2023-02-15T15:14:59;9.75;;;5.82;;
76656;SDS011;65576;47.714;9.414;2023-02-15T15:20:10;11.13;;;6.50;;
76656;SDS011;65576;47.714;9.414;2023-02-15T15:22:41;15.95;;;6.30;;
76656;SDS011;65576;47.714;9.414;2023-02-15T15:31:09;9.63;;;5.25;;
76656;SDS011;65576;47.714;9.414;2023-02-15T15:36:56;10.15;;;5.90;;
76656;SDS011;65576;47.714;9.414;2023-02-15T15:40:25;9.45;;;5.72;;
76656;SDS011;65576;47.714;9.414;2023-02-15T15:50:53;7.57;;;4.43;;
76656;SDS011;65576;47.714;9.414;2023-02-15T15:53:23;7.38;;;4.30;;
76656;SDS011;65576;47.714;9.414;2023-02-15T15:55:50;4.45;;;3.50;;
76656;SDS011;65576;47.714;9.414;2023-02-15T15:58:19;9.02;;;5.57;;
76656;SDS011;65576;47.714;9.414;2023-02-15T16:03:24;6.13;;;4.60;;
76656;SDS011;65576;47.714;9.414;2023-02-15T16:05:50;11.52;;;5.25;;
76656;SDS011;65576;47.714;9.414;2023-02-15T16:08:27;8.73;;;4.68;;
76656;SDS011;65576;47.714;9.414;2023-02-15T16:10:59;11.75;;;4.82;;
76656;SDS011;65576;47.714;9.414;2023-02-15T16:13:26;10.05;;;4.80;;
76656;SDS011;65576;47.714;9.414;2023-02-15T16:15:52;10.73;;;4.45;;
76656;SDS011;65576;47.714;9.414;2023-02-15T16:18:20;10.02;;;5.22;;
76656;SDS011;65576;47.714;9.414;2023-02-15T16:20:59;9.30;;;4.63;;
76656;SDS011;65576;47.714;9.414;2023-02-15T16:28:47;6.65;;;3.83;;
76656;SDS011;65576;47.714;9.414;2023-02-15T16:31:14;5.38;;;4.28;;
76656;SDS011;65576;47.714;9.414;2023-02-15T16:33:41;6.63;;;3.88;;
76656;SDS011;65576;47.714;9.414;2023-02-15T16:36:10;6.88;;;4.45;;
76656;SDS011;65576;47.714;9.414;2023-02-15T16:41:21;6.80;;;4.28;;
76656;SDS011;65576;47.714;9.414;2023-02-15T16:43:48;7.97;;;4.07;;
76656;SDS011;65576;47.714;9.414;2023-02-15T16:46:15;8.75;;;4.55;;
76656;SDS011;65576;47.714;9.414;2023-02-15T16:48:45;7.60;;;4.03;;
76656;SDS011;65576;47.714;9.414;2023-02-15T16:51:18;6.53;;;4.45;;
76656;SDS011;65576;47.714;9.414;2023-02-15T16:53:48;9.13;;;4.18;;
76656;SDS011;65576;47.714;9.414;2023-02-15T16:56:14;8.15;;;5.43;;
76656;SDS011;65576;47.714;9.414;2023-02-15T16:58:41;4.43;;;3.58;;
76656;SDS011;65576;47.714;9.414;2023-02-15T17:01:08;8.20;;;4.85;;
76656;SDS011;65576;47.714;9.414;2023-02-15T17:03:36;9.77;;;5.38;;
76656;SDS011;65576;47.714;9.414;2023-02-15T17:06:02;6.10;;;3.47;;
76656;SDS011;65576;47.714;9.414;2023-02-15T17:08:34;4.45;;;3.42;;
76656;SDS011;65576;47.714;9.414;2023-02-15T17:11:11;5.68;;;4.15;;
76656;SDS011;65576;47.714;9.414;2023-02-15T17:13:39;6.07;;;4.78;;
76656;SDS011;65576;47.714;9.414;2023-02-15T17:20:57;9.55;;;6.75;;
76656;SDS011;65576;47.714;9.414;2023-02-15T17:23:31;9.30;;;5.28;;
76656;SDS011;65576;47.714;9.414;2023-02-15T17:25:58;7.72;;;5.43;;
76656;SDS011;65576;47.714;9.414;2023-02-15T17:28:25;4.95;;;3.00;;
76656;SDS011;65576;47.714;9.414;2023-02-15T17:30:53;9.20;;;5.70;;
76656;SDS011;65576;47.714;9.414;2023-02-15T17:33:23;8.05;;;4.38;;
76656;SDS011;65576;47.714;9.414;2023-02-15T17:38:37;3.08;;;2.67;;
76656;SDS011;65576;47.714;9.414;2023-02-15T17:41:03;4.22;;;3.22;;
76656;SDS011;65576;47.714;9.414;2023-02-15T17:43:29;3.15;;;2.88;;
76656;SDS011;65576;47.714;9.414;2023-02-15T17:45:54;5.75;;;4.82;;
76656;SDS011;65576;47.714;9.414;2023-02-15T17:48:28;7.25;;;5.20;;
76656;SDS011;65576;47.714;9.414;2023-02-15T17:50:57;10.70;;;4.68;;
76656;SDS011;65576;47.714;9.414;2023-02-15T17:53:23;7.28;;;4.53;;
76656;SDS011;65576;47.714;9.414;2023-02-15T17:55:49;5.20;;;3.50;;
76656;SDS011;65576;47.714;9.414;2023-02-15T17:58:16;23.17;;;8.27;;
76656;SDS011;65576;47.714;9.414;2023-02-15T18:00:47;27.55;;;13.05;;